Haywood, Oklahoma
Current Conditions -  °F | °C
As of 6:53 PM on Friday 19 Dec 2014 (Local Time) from KMLC Reporting Station
Haze Haze  
Wind Chill: 36°   Ceiling: 200
Heat Index: 41°   Visibility: 0.75mi
Dew Point: 41°   Wind: 8mph
Humidity: 100%   Direction: 20°NNE
Pressure: 30.21"   Gusts: NA
Location:  34.9351°N, 95.8929°W
Report Text: KMLC 200053Z AUTO 02007KT 3/4SM BR OVC002 05/05 A3021 RMK AO2 SLP229 T00500050
Loading
Personal Weather Stations






























Interactive Weather Map New forecast layout! Learn more

10-Day Weather Forecast

Advertisements
Track Severe Weather on mobile